Terminal Aerodrome Forecast
Issued by NWS

Home | Current Version | Previous Version | Text Only | Print | Product List | Glossary On
Versions: 1 2 3 4 5 6 7 8 9 10 11 12 13 14 15 16 17 18 19 20 21
287
FTUS41 KBGM 270520
TAFELM
TAF
KELM 270520Z 2706/2806 VRB03KT P6SM SCT080
      TEMPO 2706/2710 1 1/2SM BR BKN002
     FM271000 VRB03KT P6SM SCT045 OVC080
      TEMPO 2710/2714 -SHRA OVC045
     FM271400 26008KT P6SM BKN060
      TEMPO 2716/2720 -SHRA OVC035
     FM280300 25005KT P6SM FEW070=

USA.gov is the U.S. government's official web portal to all federal, state and local government web resources and services.